Aviation Digital Data Service (ADDS)

Output produced by METARs form (1324 UTC 18 December 2014)
found at http://aviationweather.gov/adds/metars/
 
KCRG 181120Z 1812/1912 31005KT P6SM BKN200 
     FM190000 VRB02KT P6SM FEW080 SCT250